Doris T — V2HR — position and weather

sailwx.info

Track history (hours):
 
Tides and Currents Weather Stations Pressure Air Temp Water Temp Dewpoint Dewpoint Depression Visibility Wind Speed Wind Dir Waves Ship Positions

Doris T

Last reported at 2014-Sep-22 11:34 UTC. Time now 2014-Dec-21 01:09 UTC.
Position N 55°60' E 015°45'.
Warning: this ship's position is months out of date.

Length 79 m; draft 3.8 m.

Type: Cargo ship. MMSI: 304010102.

Date/timePositionNaut miles runAvg speedWind from/ knotsBaromVisibWave heightAir tempDewpointWater temp
2014-Sep-22 11:34N 55°60' E 015°45'8 8.0
2014-Sep-22 10:34N 56°03' E 015°32'0 0.3
2014-Sep-22 09:33N 56°04' E 015°32'0 0.0
2014-Sep-22 08:33N 56°04' E 015°32'0 0.0
2014-Sep-22 07:33N 56°04' E 015°32'0 0.0
2014-Sep-22 06:33N 56°04' E 015°32'0 0.0
2014-Sep-22 05:33N 56°04' E 015°32'0 0.0
2014-Sep-22 04:33N 56°04' E 015°32'0 0.0
2014-Sep-22 03:34N 56°04' E 015°32'1 0.8
2014-Sep-22 02:33N 56°03' E 015°32'6 6.2
2014-Sep-22 01:34N 56°00' E 015°42'60 3.9
2014-Sep-21 10:18N 55°36' E 017°19'0 0.1
2014-Sep-21 09:11N 55°35' E 017°19'63 7.2
2014-Sep-21 00:24N 55°27' E 015°28'7 8.2
2014-Sep-20 23:32N 55°26' E 015°15'8 8.2
2014-Sep-20 22:33N 55°25' E 015°01'8 8.4
2014-Sep-20 21:33N 55°23' E 014°47'8 8.0
2014-Sep-20 20:33N 55°19' E 014°35'11 8.0
2014-Sep-20 19:09N 55°12' E 014°20'5 8.0
2014-Sep-20 18:32N 55°11' E 014°11'17 7.4
2014-Sep-20 16:19N 55°12' E 013°42'21 7.5
2014-Sep-20 13:26N 55°14' E 013°05'7 7.6
2014-Sep-20 12:34N 55°15' E 012°53'8 7.5
2014-Sep-20 11:34N 55°17' E 012°41'7 7.2
2014-Sep-20 10:33N 55°24' E 012°39'9 8.6
2014-Sep-20 09:33N 55°33' E 012°42'10 9.6
2014-Sep-20 08:34N 55°42' E 012°41'8 8.1
2014-Sep-20 07:33N 55°51' E 012°40'8 7.9
2014-Sep-20 06:33N 55°58' E 012°38'7 7.2
2014-Sep-20 05:34N 56°05' E 012°34'6 6.0
2014-Sep-20 04:34N 56°10' E 012°27'7 6.6
2014-Sep-20 03:34N 56°15' E 012°19'8 7.8
2014-Sep-20 02:33N 56°21' E 012°10'7 7.1
2014-Sep-20 01:34N 56°27' E 012°03'7 7.0
2014-Sep-20 00:33N 56°33' E 011°57'7 7.2
2014-Sep-19 23:33N 56°40' E 011°54'7 7.3
2014-Sep-19 22:33N 56°47' E 011°49'8 7.8
2014-Sep-19 21:33N 56°54' E 011°44'9 8.4
2014-Sep-19 20:29N 57°02' E 011°36'8 8.2
2014-Sep-19 19:33N 57°08' E 011°29'8 8.2
2014-Sep-19 18:33N 57°16' E 011°22'8 8.4
2014-Sep-19 17:34N 57°23' E 011°15'8 8.4
2014-Sep-19 16:34N 57°30' E 011°06'9 8.6
2014-Sep-19 15:33N 57°37' E 010°57'12 8.2
2014-Sep-19 14:07N 57°47' E 010°44'45 7.9
2014-Sep-19 08:26N 57°36' E 009°23'7 8.1
2014-Sep-19 07:33N 57°34' E 009°10'8 8.0
2014-Sep-19 06:34N 57°32' E 008°55'9 7.9
2014-Sep-19 05:21N 57°31' E 008°38'7 7.8
2014-Sep-19 04:29N 57°30' E 008°25'7 7.8
2014-Sep-19 03:34N 57°29' E 008°12'  
2014-Sep-16 18:19N 56°10' W 002°07'6 7.4
2014-Sep-16 17:33N 56°08' W 002°17'7 7.4
2014-Sep-16 16:33N 56°07' W 002°30'7 7.2
2014-Sep-16 15:33N 56°06' W 002°43'8 7.8
2014-Sep-16 14:33N 56°04' W 002°56'8 8.3
2014-Sep-16 13:33N 56°02' W 003°11'9 8.8
2014-Sep-16 12:33N 56°00' W 003°26'8 8.4
2014-Sep-16 11:33N 56°02' W 003°41'1 0.6
2014-Sep-16 10:33N 56°02' W 003°42'0 0.0
2014-Sep-16 09:33N 56°02' W 003°42'0 0.0
2014-Sep-16 08:33N 56°02' W 003°42'0 0.0
2014-Sep-16 07:33N 56°02' W 003°42'0 0.0
2014-Sep-16 06:33N 56°02' W 003°42'0 0.0
2014-Sep-16 05:33N 56°02' W 003°42'0 0.0
2014-Sep-16 04:33N 56°02' W 003°42'0 0.0
2014-Sep-16 03:33N 56°02' W 003°42'0 0.0
2014-Sep-16 02:33N 56°02' W 003°42'0 0.0
2014-Sep-16 01:33N 56°02' W 003°42'0 0.0
2014-Sep-16 00:33N 56°02' W 003°42'0 0.0
2014-Sep-15 23:33N 56°02' W 003°42'0 0.0
2014-Sep-15 22:30N 56°02' W 003°42'0 0.0
2014-Sep-15 21:33N 56°02' W 003°42'0 0.0
2014-Sep-15 20:33N 56°02' W 003°42'0 0.0
2014-Sep-15 19:30N 56°02' W 003°42'0 0.0
2014-Sep-15 18:33N 56°02' W 003°42'0 0.0
2014-Sep-15 17:33N 56°02' W 003°42'0 0.0
2014-Sep-15 16:27N 56°02' W 003°42'0 0.0
2014-Sep-15 15:33N 56°02' W 003°42'0 0.0
2014-Sep-15 14:33N 56°02' W 003°42'0 0.0
2014-Sep-15 13:33N 56°02' W 003°42'0 0.0
2014-Sep-15 12:33N 56°02' W 003°42'0 0.0
2014-Sep-15 11:33N 56°02' W 003°42'0 0.0
2014-Sep-15 10:33N 56°02' W 003°42'0 0.0
2014-Sep-15 09:33N 56°02' W 003°42'0 0.0
2014-Sep-15 08:33N 56°02' W 003°42'0 0.0
2014-Sep-15 07:33N 56°02' W 003°42'0 0.0
2014-Sep-15 06:30N 56°02' W 003°42'0 0.0
2014-Sep-15 05:33N 56°02' W 003°42'0 0.0
2014-Sep-15 04:33N 56°02' W 003°42'0 0.0
2014-Sep-15 03:33N 56°02' W 003°42'0 0.0
2014-Sep-15 02:33N 56°02' W 003°42'0 0.0
2014-Sep-15 01:33N 56°02' W 003°42'0 0.0
2014-Sep-15 00:33N 56°02' W 003°42'0 0.0
2014-Sep-14 23:33N 56°02' W 003°42'0 0.0
2014-Sep-14 22:33N 56°02' W 003°42'0 0.0
2014-Sep-14 21:33N 56°02' W 003°42'0 0.0
2014-Sep-14 20:33N 56°02' W 003°42'0 0.0
2014-Sep-14 19:33N 56°02' W 003°42'0 0.0
2014-Sep-14 18:33N 56°02' W 003°42'0 0.0
2014-Sep-14 17:33N 56°02' W 003°42'0 0.0
2014-Sep-14 16:33N 56°02' W 003°42'0 0.0
2014-Sep-14 15:33N 56°02' W 003°42'0 0.0
2014-Sep-14 14:33N 56°02' W 003°42'0 0.0
2014-Sep-14 13:33N 56°02' W 003°42'0 0.0
2014-Sep-14 12:33N 56°02' W 003°42'0 0.0
2014-Sep-14 11:33N 56°02' W 003°42'0 0.0
2014-Sep-14 10:33N 56°02' W 003°42'0 0.0
2014-Sep-14 09:33N 56°02' W 003°42'0 0.0
2014-Sep-14 08:30N 56°02' W 003°42'0 0.0
2014-Sep-14 07:33N 56°02' W 003°42'0 0.0
2014-Sep-14 06:33N 56°02' W 003°42'0 0.0
2014-Sep-14 05:33N 56°02' W 003°42'0 0.0
2014-Sep-14 04:33N 56°02' W 003°42'0 0.0
2014-Sep-14 03:33N 56°02' W 003°42'0 0.0
2014-Sep-14 02:33N 56°02' W 003°42'0 0.0
2014-Sep-14 01:33N 56°02' W 003°42'17 4.4
2014-Sep-13 21:33N 56°03' W 003°11'4 3.8
2014-Sep-13 20:32N 56°05' W 003°04'0 0.0
2014-Sep-13 19:32N 56°05' W 003°04'1 0.8
2014-Sep-13 18:33N 56°04' W 003°03'6 6.3
2014-Sep-13 17:33N 56°06' W 002°52'3 2.6
2014-Sep-13 16:33N 56°07' W 002°55'5 5.1
2014-Sep-13 15:33N 56°04' W 003°02'7 7.0
2014-Sep-13 14:33N 56°06' W 002°50'7 6.5
2014-Sep-13 13:33N 56°08' W 002°39'4 3.7
2014-Sep-13 12:33N 56°07' W 002°33'8 7.6
2014-Sep-13 11:33N 56°04' W 002°21'82 7.9
2014-Sep-13 01:11N 55°02' W 000°44'6 9.5
2014-Sep-13 00:30N 54°57' W 000°38'9 9.8
2014-Sep-12 23:33N 54°49' W 000°29'10 9.9
2014-Sep-12 22:33N 54°41' W 000°20'9 9.0
2014-Sep-12 21:33N 54°33' W 000°12'8 8.4
2014-Sep-12 20:33N 54°26' W 000°04'8 7.5
2014-Sep-12 19:33N 54°20' E 000°04'7 7.0
2014-Sep-12 18:33N 54°14' E 000°10'7 7.0
2014-Sep-12 17:33N 54°08' E 000°17'  
Track history (hours):
 
Tides and Currents Weather Stations Pressure Air Temp Water Temp Dewpoint Dewpoint Depression Visibility Wind Speed Wind Dir Waves Ship Positions

Doris T

Last reported at 2014-Sep-22 11:34 UTC. Time now 2014-Dec-21 01:09 UTC.
Position N 55°60' E 015°45'.
Warning: this ship's position is months out of date.

Length 79 m; draft 3.8 m.

Type: Cargo ship. MMSI: 304010102.

Date/timePositionNaut miles runAvg speedWind from/ knotsBaromVisibWave heightAir tempDewpointWater temp
2014-Sep-22 11:34N 55°60' E 015°45'8 8.0
2014-Sep-22 10:34N 56°03' E 015°32'0 0.3
2014-Sep-22 09:33N 56°04' E 015°32'0 0.0
2014-Sep-22 08:33N 56°04' E 015°32'0 0.0
2014-Sep-22 07:33N 56°04' E 015°32'0 0.0
2014-Sep-22 06:33N 56°04' E 015°32'0 0.0
2014-Sep-22 05:33N 56°04' E 015°32'0 0.0
2014-Sep-22 04:33N 56°04' E 015°32'0 0.0
2014-Sep-22 03:34N 56°04' E 015°32'1 0.8
2014-Sep-22 02:33N 56°03' E 015°32'6 6.2
2014-Sep-22 01:34N 56°00' E 015°42'60 3.9
2014-Sep-21 10:18N 55°36' E 017°19'0 0.1
2014-Sep-21 09:11N 55°35' E 017°19'63 7.2
2014-Sep-21 00:24N 55°27' E 015°28'7 8.2
2014-Sep-20 23:32N 55°26' E 015°15'8 8.2
2014-Sep-20 22:33N 55°25' E 015°01'8 8.4
2014-Sep-20 21:33N 55°23' E 014°47'8 8.0
2014-Sep-20 20:33N 55°19' E 014°35'11 8.0
2014-Sep-20 19:09N 55°12' E 014°20'5 8.0
2014-Sep-20 18:32N 55°11' E 014°11'17 7.4
2014-Sep-20 16:19N 55°12' E 013°42'21 7.5
2014-Sep-20 13:26N 55°14' E 013°05'7 7.6
2014-Sep-20 12:34N 55°15' E 012°53'8 7.5
2014-Sep-20 11:34N 55°17' E 012°41'7 7.2
2014-Sep-20 10:33N 55°24' E 012°39'9 8.6
2014-Sep-20 09:33N 55°33' E 012°42'10 9.6
2014-Sep-20 08:34N 55°42' E 012°41'8 8.1
2014-Sep-20 07:33N 55°51' E 012°40'8 7.9
2014-Sep-20 06:33N 55°58' E 012°38'7 7.2
2014-Sep-20 05:34N 56°05' E 012°34'6 6.0
2014-Sep-20 04:34N 56°10' E 012°27'7 6.6
2014-Sep-20 03:34N 56°15' E 012°19'8 7.8
2014-Sep-20 02:33N 56°21' E 012°10'7 7.1
2014-Sep-20 01:34N 56°27' E 012°03'7 7.0
2014-Sep-20 00:33N 56°33' E 011°57'7 7.2
2014-Sep-19 23:33N 56°40' E 011°54'7 7.3
2014-Sep-19 22:33N 56°47' E 011°49'8 7.8
2014-Sep-19 21:33N 56°54' E 011°44'9 8.4
2014-Sep-19 20:29N 57°02' E 011°36'8 8.2
2014-Sep-19 19:33N 57°08' E 011°29'8 8.2
2014-Sep-19 18:33N 57°16' E 011°22'8 8.4
2014-Sep-19 17:34N 57°23' E 011°15'8 8.4
2014-Sep-19 16:34N 57°30' E 011°06'9 8.6
2014-Sep-19 15:33N 57°37' E 010°57'12 8.2
2014-Sep-19 14:07N 57°47' E 010°44'45 7.9
2014-Sep-19 08:26N 57°36' E 009°23'7 8.1
2014-Sep-19 07:33N 57°34' E 009°10'8 8.0
2014-Sep-19 06:34N 57°32' E 008°55'9 7.9
2014-Sep-19 05:21N 57°31' E 008°38'7 7.8
2014-Sep-19 04:29N 57°30' E 008°25'7 7.8
2014-Sep-19 03:34N 57°29' E 008°12'  
2014-Sep-16 18:19N 56°10' W 002°07'6 7.4
2014-Sep-16 17:33N 56°08' W 002°17'7 7.4
2014-Sep-16 16:33N 56°07' W 002°30'7 7.2
2014-Sep-16 15:33N 56°06' W 002°43'8 7.8
2014-Sep-16 14:33N 56°04' W 002°56'8 8.3
2014-Sep-16 13:33N 56°02' W 003°11'9 8.8
2014-Sep-16 12:33N 56°00' W 003°26'8 8.4
2014-Sep-16 11:33N 56°02' W 003°41'1 0.6
2014-Sep-16 10:33N 56°02' W 003°42'0 0.0
2014-Sep-16 09:33N 56°02' W 003°42'0 0.0
2014-Sep-16 08:33N 56°02' W 003°42'0 0.0
2014-Sep-16 07:33N 56°02' W 003°42'0 0.0
2014-Sep-16 06:33N 56°02' W 003°42'0 0.0
2014-Sep-16 05:33N 56°02' W 003°42'0 0.0
2014-Sep-16 04:33N 56°02' W 003°42'0 0.0
2014-Sep-16 03:33N 56°02' W 003°42'0 0.0
2014-Sep-16 02:33N 56°02' W 003°42'0 0.0
2014-Sep-16 01:33N 56°02' W 003°42'0 0.0
2014-Sep-16 00:33N 56°02' W 003°42'0 0.0
2014-Sep-15 23:33N 56°02' W 003°42'0 0.0
2014-Sep-15 22:30N 56°02' W 003°42'0 0.0
2014-Sep-15 21:33N 56°02' W 003°42'0 0.0
2014-Sep-15 20:33N 56°02' W 003°42'0 0.0
2014-Sep-15 19:30N 56°02' W 003°42'0 0.0
2014-Sep-15 18:33N 56°02' W 003°42'0 0.0
2014-Sep-15 17:33N 56°02' W 003°42'0 0.0
2014-Sep-15 16:27N 56°02' W 003°42'0 0.0
2014-Sep-15 15:33N 56°02' W 003°42'0 0.0
2014-Sep-15 14:33N 56°02' W 003°42'0 0.0
2014-Sep-15 13:33N 56°02' W 003°42'0 0.0
2014-Sep-15 12:33N 56°02' W 003°42'0 0.0
2014-Sep-15 11:33N 56°02' W 003°42'0 0.0
2014-Sep-15 10:33N 56°02' W 003°42'0 0.0
2014-Sep-15 09:33N 56°02' W 003°42'0 0.0
2014-Sep-15 08:33N 56°02' W 003°42'0 0.0
2014-Sep-15 07:33N 56°02' W 003°42'0 0.0
2014-Sep-15 06:30N 56°02' W 003°42'0 0.0
2014-Sep-15 05:33N 56°02' W 003°42'0 0.0
2014-Sep-15 04:33N 56°02' W 003°42'0 0.0
2014-Sep-15 03:33N 56°02' W 003°42'0 0.0
2014-Sep-15 02:33N 56°02' W 003°42'0 0.0
2014-Sep-15 01:33N 56°02' W 003°42'0 0.0
2014-Sep-15 00:33N 56°02' W 003°42'0 0.0
2014-Sep-14 23:33N 56°02' W 003°42'0 0.0
2014-Sep-14 22:33N 56°02' W 003°42'0 0.0
2014-Sep-14 21:33N 56°02' W 003°42'0 0.0
2014-Sep-14 20:33N 56°02' W 003°42'0 0.0
2014-Sep-14 19:33N 56°02' W 003°42'0 0.0
2014-Sep-14 18:33N 56°02' W 003°42'0 0.0
2014-Sep-14 17:33N 56°02' W 003°42'0 0.0
2014-Sep-14 16:33N 56°02' W 003°42'0 0.0
2014-Sep-14 15:33N 56°02' W 003°42'0 0.0
2014-Sep-14 14:33N 56°02' W 003°42'0 0.0
2014-Sep-14 13:33N 56°02' W 003°42'0 0.0
2014-Sep-14 12:33N 56°02' W 003°42'0 0.0
2014-Sep-14 11:33N 56°02' W 003°42'0 0.0
2014-Sep-14 10:33N 56°02' W 003°42'0 0.0
2014-Sep-14 09:33N 56°02' W 003°42'0 0.0
2014-Sep-14 08:30N 56°02' W 003°42'0 0.0
2014-Sep-14 07:33N 56°02' W 003°42'0 0.0
2014-Sep-14 06:33N 56°02' W 003°42'0 0.0
2014-Sep-14 05:33N 56°02' W 003°42'0 0.0
2014-Sep-14 04:33N 56°02' W 003°42'0 0.0
2014-Sep-14 03:33N 56°02' W 003°42'0 0.0
2014-Sep-14 02:33N 56°02' W 003°42'0 0.0
2014-Sep-14 01:33N 56°02' W 003°42'17 4.4
2014-Sep-13 21:33N 56°03' W 003°11'4 3.8
2014-Sep-13 20:32N 56°05' W 003°04'0 0.0
2014-Sep-13 19:32N 56°05' W 003°04'1 0.8
2014-Sep-13 18:33N 56°04' W 003°03'6 6.3
2014-Sep-13 17:33N 56°06' W 002°52'3 2.6
2014-Sep-13 16:33N 56°07' W 002°55'5 5.1
2014-Sep-13 15:33N 56°04' W 003°02'7 7.0
2014-Sep-13 14:33N 56°06' W 002°50'7 6.5
2014-Sep-13 13:33N 56°08' W 002°39'4 3.7
2014-Sep-13 12:33N 56°07' W 002°33'8 7.6
2014-Sep-13 11:33N 56°04' W 002°21'82 7.9
2014-Sep-13 01:11N 55°02' W 000°44'6 9.5
2014-Sep-13 00:30N 54°57' W 000°38'9 9.8
2014-Sep-12 23:33N 54°49' W 000°29'10 9.9
2014-Sep-12 22:33N 54°41' W 000°20'9 9.0
2014-Sep-12 21:33N 54°33' W 000°12'8 8.4
2014-Sep-12 20:33N 54°26' W 000°04'8 7.5
2014-Sep-12 19:33N 54°20' E 000°04'7 7.0
2014-Sep-12 18:33N 54°14' E 000°10'7 7.0
2014-Sep-12 17:33N 54°08' E 000°17'  

Dump ship's entire track history